Time;durP1;ratioP1;P1;durP2;ratioP2;P2;SDS_P1;SDS_P2;PMS_P1;PMS_P2;Temp;Humidity;BMP_temperature;BMP_pressure;BME280_temperature;BME280_humidity;BME280_pressure;Samples;Min_cycle;Max_cycle;Signal;HPM_P1;HPM_P2
2024/01/15 00:01:34;;;;;;;30.33;15.70;;;1.30;99.90;;;;;;5084358;28;20228;-74
2024/01/15 00:04:00;;;;;;;38.27;17.20;;;1.30;99.90;;;;;;5076552;28;20424;-68
2024/01/15 00:06:26;;;;;;;34.50;16.10;;;1.30;99.90;;;;;;5078788;28;20246;-69
2024/01/15 00:08:52;;;;;;;30.53;15.37;;;1.20;99.90;;;;;;5052799;28;20432;-69
2024/01/15 00:11:19;;;;;;;30.33;16.77;;;1.20;99.90;;;;;;5079387;28;20895;-69
2024/01/15 00:13:45;;;;;;;32.83;17.10;;;1.20;99.90;;;;;;5078744;28;20604;-69
2024/01/15 00:16:10;;;;;;;31.93;16.23;;;1.20;99.90;;;;;;5075648;28;20431;-71
2024/01/15 00:18:36;;;;;;;32.27;15.47;;;1.10;99.90;;;;;;5073294;28;20192;-67
2024/01/15 00:21:02;;;;;;;37.60;18.40;;;1.10;99.90;;;;;;5079739;28;20601;-69
2024/01/15 00:23:27;;;;;;;28.47;16.03;;;1.10;99.90;;;;;;5075357;28;20204;-66
2024/01/15 00:25:53;;;;;;;31.43;15.50;;;1.10;99.90;;;;;;5076448;28;20526;-69
2024/01/15 00:28:19;;;;;;;32.33;17.27;;;1.10;99.90;;;;;;5069851;28;20189;-68
2024/01/15 00:30:44;;;;;;;31.30;16.10;;;1.00;99.90;;;;;;5051904;28;20196;-68
2024/01/15 00:33:12;;;;;;;34.00;19.13;;;1.00;99.90;;;;;;5073416;28;20215;-68
2024/01/15 00:35:38;;;;;;;33.53;16.27;;;0.90;99.90;;;;;;5080825;28;20212;-67
2024/01/15 00:38:03;;;;;;;40.27;18.30;;;0.90;99.90;;;;;;5080003;28;20415;-71
2024/01/15 00:40:29;;;;;;;37.90;19.70;;;0.90;99.90;;;;;;5081112;28;20415;-71
2024/01/15 00:42:55;;;;;;;45.57;18.77;;;0.80;99.90;;;;;;5078719;28;20299;-70
2024/01/15 00:45:20;;;;;;;35.53;16.07;;;0.80;99.90;;;;;;5078299;28;20217;-71
2024/01/15 00:47:46;;;;;;;31.50;16.00;;;0.80;99.90;;;;;;5076808;28;20252;-70
2024/01/15 00:50:12;;;;;;;42.27;18.03;;;0.80;99.90;;;;;;5070934;28;20192;-70
2024/01/15 00:52:37;;;;;;;35.10;16.83;;;0.80;99.90;;;;;;5080494;28;20221;-71
2024/01/15 00:55:03;;;;;;;40.67;18.63;;;0.80;99.90;;;;;;5075627;28;20213;-71
2024/01/15 00:57:29;;;;;;;38.70;17.93;;;0.70;99.90;;;;;;5073578;28;20189;-69
2024/01/15 00:59:55;;;;;;;40.33;19.60;;;0.70;99.90;;;;;;5074721;28;20522;-69
2024/01/15 01:02:20;;;;;;;41.57;18.57;;;0.70;99.90;;;;;;5076199;28;20258;-69
2024/01/15 01:04:46;;;;;;;40.87;19.53;;;0.70;99.90;;;;;;5077317;28;20574;-68
2024/01/15 01:07:12;;;;;;;35.00;18.57;;;0.70;99.90;;;;;;5074321;28;20287;-69
2024/01/15 01:09:37;;;;;;;41.90;18.70;;;0.70;99.90;;;;;;5074904;28;20276;-68
2024/01/15 01:12:03;;;;;;;41.70;20.17;;;0.70;99.90;;;;;;5073972;28;20204;-67
2024/01/15 01:14:29;;;;;;;42.47;19.10;;;0.70;99.90;;;;;;5068676;28;20642;-68
2024/01/15 01:16:54;;;;;;;42.03;18.90;;;0.80;99.90;;;;;;5072347;28;20205;-68
2024/01/15 01:19:20;;;;;;;43.53;20.07;;;0.80;99.90;;;;;;5067878;28;20173;-68
2024/01/15 01:21:46;;;;;;;45.17;19.17;;;0.80;99.90;;;;;;5071385;28;20177;-68
2024/01/15 01:24:11;;;;;;;37.60;19.27;;;0.80;99.90;;;;;;5070459;28;20189;-68
2024/01/15 01:26:37;;;;;;;37.37;20.23;;;0.80;99.90;;;;;;5071507;28;20537;-67
2024/01/15 01:29:03;;;;;;;37.73;17.50;;;0.80;99.90;;;;;;5071462;28;20201;-68
2024/01/15 01:31:28;;;;;;;37.60;19.87;;;0.70;99.90;;;;;;5071294;28;20573;-66
2024/01/15 01:33:54;;;;;;;33.10;17.17;;;0.70;99.90;;;;;;5072326;28;20532;-69
2024/01/15 01:36:19;;;;;;;38.03;18.47;;;0.70;99.90;;;;;;5074552;28;20209;-67
2024/01/15 01:38:45;;;;;;;37.37;17.43;;;0.70;99.90;;;;;;5071495;28;20189;-67
2024/01/15 01:41:11;;;;;;;40.93;19.30;;;0.70;99.90;;;;;;5073947;28;20213;-68
2024/01/15 01:43:37;;;;;;;38.93;17.43;;;0.70;99.90;;;;;;5071687;28;20204;-67
2024/01/15 01:46:03;;;;;;;41.67;18.03;;;0.70;99.90;;;;;;5074263;28;20204;-67
2024/01/15 01:48:29;;;;;;;47.50;19.57;;;0.60;99.90;;;;;;5068303;28;20196;-68
2024/01/15 01:50:57;;;;;;;32.53;18.80;;;0.60;99.90;;;;;;5066453;28;20720;-68
2024/01/15 01:53:24;;;;;;;41.30;18.83;;;0.60;99.90;;;;;;5072987;28;20443;-70
2024/01/15 01:55:51;;;;;;;38.70;17.87;;;0.60;99.90;;;;;;5073706;28;20921;-67
2024/01/15 01:58:17;;;;;;;36.47;18.27;;;0.60;99.90;;;;;;5070508;28;20408;-67
2024/01/15 02:00:43;;;;;;;29.60;17.30;;;0.60;99.90;;;;;;5071215;28;20412;-69
2024/01/15 02:03:09;;;;;;;33.07;16.23;;;0.60;99.90;;;;;;5067135;28;20448;-66
2024/01/15 02:05:36;;;;;;;32.10;16.47;;;0.70;99.90;;;;;;5072708;28;20431;-68
2024/01/15 02:08:01;;;;;;;33.30;17.50;;;0.60;99.90;;;;;;5073707;28;20561;-68
2024/01/15 02:10:27;;;;;;;40.37;17.77;;;0.70;99.90;;;;;;5071777;28;20445;-68
2024/01/15 02:12:53;;;;;;;44.00;19.40;;;0.70;99.90;;;;;;5072386;28;20609;-67
2024/01/15 02:15:18;;;;;;;40.47;18.83;;;0.70;99.90;;;;;;5073843;28;20270;-68
2024/01/15 02:18:04;;;;;;;40.23;19.20;;;0.80;99.90;;;;;;5073195;28;20192;-68
2024/01/15 02:20:31;;;;;;;42.87;20.57;;;0.80;99.90;;;;;;5072144;28;20188;-69
2024/01/15 02:23:13;;;;;;;44.53;19.23;;;0.80;99.90;;;;;;5066084;28;20814;-68
2024/01/15 02:25:41;;;;;;;37.53;19.17;;;0.80;99.90;;;;;;5069897;28;20466;-68
2024/01/15 02:28:09;;;;;;;41.77;19.90;;;0.80;99.90;;;;;;5072924;28;20949;-69
2024/01/15 02:30:39;;;;;;;34.93;18.67;;;0.80;99.90;;;;;;5050245;28;20424;-67
2024/01/15 02:33:05;;;;;;;37.03;19.30;;;0.80;99.90;;;;;;5068435;28;20709;-69
2024/01/15 02:35:30;;;;;;;34.77;16.73;;;0.80;99.90;;;;;;5074896;28;20466;-68
2024/01/15 02:37:56;;;;;;;45.13;19.00;;;0.80;99.90;;;;;;5073596;28;20484;-67
2024/01/15 02:40:22;;;;;;;31.90;15.97;;;0.80;99.90;;;;;;5072512;28;20192;-68
2024/01/15 02:42:47;;;;;;;37.40;18.70;;;0.80;99.90;;;;;;5071006;28;20211;-66
2024/01/15 02:45:13;;;;;;;40.90;19.50;;;0.80;99.90;;;;;;5073850;28;20687;-67
2024/01/15 02:47:38;;;;;;;37.40;18.47;;;0.90;99.90;;;;;;5066942;28;20570;-67
2024/01/15 02:50:05;;;;;;;35.07;18.37;;;0.90;99.90;;;;;;5068400;28;20297;-67
2024/01/15 02:52:30;;;;;;;33.47;18.00;;;0.90;99.90;;;;;;5072315;28;20246;-68
2024/01/15 02:54:56;;;;;;;37.33;19.57;;;0.90;99.90;;;;;;5073091;28;20895;-67
2024/01/15 02:57:21;;;;;;;30.30;17.60;;;0.90;99.90;;;;;;5070238;28;20236;-67
2024/01/15 02:59:47;;;;;;;43.63;21.17;;;0.90;99.90;;;;;;5070401;28;20185;-67
2024/01/15 03:02:13;;;;;;;37.53;18.23;;;0.90;99.90;;;;;;5074608;28;20475;-67
2024/01/15 03:04:45;;;;;;;39.27;18.70;;;0.90;99.90;;;;;;5073052;28;20200;-67
2024/01/15 03:07:11;;;;;;;38.70;18.70;;;0.90;99.90;;;;;;5073910;28;20205;-68
2024/01/15 03:09:37;;;;;;;37.27;18.17;;;1.00;99.90;;;;;;5074619;28;20422;-67
2024/01/15 03:12:04;;;;;;;33.50;16.00;;;0.90;99.90;;;;;;5072469;28;20415;-67
2024/01/15 03:14:29;;;;;;;40.43;17.40;;;0.90;99.90;;;;;;5070589;28;20224;-67
2024/01/15 03:16:55;;;;;;;31.77;16.67;;;0.90;99.90;;;;;;5076403;28;20439;-66
2024/01/15 03:19:21;;;;;;;39.20;18.83;;;0.90;99.90;;;;;;5072336;28;20296;-67
2024/01/15 03:21:47;;;;;;;33.30;17.20;;;0.90;99.90;;;;;;5075358;28;20717;-68
2024/01/15 03:24:12;;;;;;;36.37;16.87;;;0.90;99.90;;;;;;5076937;28;20193;-67
2024/01/15 03:26:38;;;;;;;35.87;17.83;;;0.90;99.90;;;;;;5075025;28;20213;-67
2024/01/15 03:29:04;;;;;;;30.33;15.63;;;0.90;99.90;;;;;;5076167;28;20510;-69
2024/01/15 03:31:29;;;;;;;30.37;15.40;;;0.90;99.90;;;;;;5076963;28;20239;-68
2024/01/15 03:33:56;;;;;;;29.20;16.13;;;0.90;99.90;;;;;;5074804;28;20586;-67
2024/01/15 03:36:21;;;;;;;29.77;15.90;;;0.90;99.90;;;;;;5076663;28;20205;-67
2024/01/15 03:38:47;;;;;;;36.47;18.00;;;1.00;99.90;;;;;;5070545;28;20479;-68
2024/01/15 03:41:13;;;;;;;29.03;16.50;;;1.00;99.90;;;;;;5073852;28;20221;-68
2024/01/15 03:43:39;;;;;;;32.30;16.10;;;1.00;99.90;;;;;;5073415;28;20547;-67
2024/01/15 03:46:05;;;;;;;31.30;17.47;;;1.00;99.90;;;;;;5076635;28;20213;-67
2024/01/15 03:48:31;;;;;;;31.47;17.57;;;1.00;99.90;;;;;;5075171;28;20434;-68
2024/01/15 03:50:56;;;;;;;31.73;17.23;;;1.00;99.90;;;;;;5073368;28;20227;-69
2024/01/15 03:53:22;;;;;;;30.77;18.77;;;1.10;99.90;;;;;;5076864;28;20594;-68
2024/01/15 03:55:48;;;;;;;33.20;18.50;;;1.10;99.90;;;;;;5073229;28;20504;-68
2024/01/15 03:58:14;;;;;;;37.40;17.60;;;1.10;99.90;;;;;;5069842;28;20559;-68
2024/01/15 04:00:40;;;;;;;35.20;17.83;;;1.10;99.90;;;;;;5047725;28;20712;-67
2024/01/15 04:03:06;;;;;;;30.70;16.80;;;1.10;99.90;;;;;;5073475;28;20411;-67
2024/01/15 04:05:32;;;;;;;30.10;18.03;;;1.10;99.90;;;;;;5074639;28;20292;-67
2024/01/15 04:07:57;;;;;;;30.77;17.77;;;1.10;99.90;;;;;;5076035;28;20185;-67
2024/01/15 04:10:23;;;;;;;30.47;18.63;;;1.10;99.90;;;;;;5075655;28;20424;-67
2024/01/15 04:12:49;;;;;;;28.70;16.90;;;1.10;99.90;;;;;;5075120;28;20196;-66
2024/01/15 04:15:15;;;;;;;32.30;18.40;;;1.10;99.90;;;;;;5075134;28;20209;-67
2024/01/15 04:17:40;;;;;;;32.27;16.77;;;1.10;99.90;;;;;;5071419;28;20493;-67
2024/01/15 04:20:07;;;;;;;32.57;18.30;;;1.10;99.90;;;;;;5069291;28;20180;-67
2024/01/15 04:22:36;;;;;;;37.90;19.63;;;1.10;99.90;;;;;;5075591;28;20223;-67
2024/01/15 04:25:02;;;;;;;30.17;17.03;;;1.00;99.90;;;;;;5072939;28;20498;-69
2024/01/15 04:27:28;;;;;;;30.83;16.60;;;1.00;99.90;;;;;;5070069;28;20507;-68
2024/01/15 04:29:54;;;;;;;34.70;17.23;;;1.00;99.90;;;;;;5073499;28;20769;-68
2024/01/15 04:32:19;;;;;;;36.70;17.17;;;1.00;99.90;;;;;;5069009;28;20585;-68
2024/01/15 04:34:45;;;;;;;31.10;16.87;;;1.10;99.90;;;;;;5074594;28;20223;-67
2024/01/15 04:37:13;;;;;;;40.53;19.30;;;1.10;99.90;;;;;;5072566;28;20314;-68
2024/01/15 04:39:38;;;;;;;32.80;18.63;;;1.10;99.90;;;;;;5075437;28;20716;-67
2024/01/15 04:42:04;;;;;;;25.63;15.50;;;1.20;99.90;;;;;;5073020;28;20607;-68
2024/01/15 04:44:30;;;;;;;27.33;13.93;;;1.20;99.90;;;;;;5075351;28;20192;-68
2024/01/15 04:46:55;;;;;;;33.03;14.70;;;1.20;99.90;;;;;;5072597;28;20258;-68
2024/01/15 04:49:21;;;;;;;27.90;15.80;;;1.20;99.90;;;;;;5063797;28;20197;-68
2024/01/15 04:51:46;;;;;;;24.47;14.00;;;1.30;99.90;;;;;;5075221;28;20298;-67
2024/01/15 04:54:12;;;;;;;28.93;16.00;;;1.30;99.90;;;;;;5074597;28;20205;-68
2024/01/15 04:56:38;;;;;;;23.77;14.43;;;1.30;99.90;;;;;;5072000;28;20594;-68
2024/01/15 04:59:03;;;;;;;29.10;14.10;;;1.40;99.90;;;;;;5074600;28;20173;-67
2024/01/15 05:01:33;;;;;;;24.73;14.33;;;1.40;99.90;;;;;;5073934;28;20608;-69
2024/01/15 05:03:59;;;;;;;29.30;15.27;;;1.40;99.90;;;;;;5076244;28;20212;-68
2024/01/15 05:06:25;;;;;;;24.90;13.17;;;1.40;99.90;;;;;;5074507;28;20435;-67
2024/01/15 05:08:50;;;;;;;24.90;13.83;;;1.50;99.90;;;;;;5073994;28;20415;-69
2024/01/15 05:11:16;;;;;;;26.40;14.20;;;1.50;99.90;;;;;;5073891;28;20221;-69
2024/01/15 05:13:42;;;;;;;20.00;12.57;;;1.50;99.90;;;;;;5073716;28;20253;-67
2024/01/15 05:16:07;;;;;;;23.10;12.03;;;1.50;99.90;;;;;;5075731;28;20212;-68
2024/01/15 05:18:33;;;;;;;21.80;12.03;;;1.50;99.90;;;;;;5071114;28;20193;-67
2024/01/15 05:20:59;;;;;;;23.23;14.70;;;1.50;99.90;;;;;;5073866;28;20267;-71
2024/01/15 05:23:25;;;;;;;23.13;13.10;;;1.50;99.90;;;;;;5065586;28;20200;-68
2024/01/15 05:25:51;;;;;;;25.43;13.33;;;1.50;99.90;;;;;;5073023;28;20211;-68
2024/01/15 05:28:17;;;;;;;24.23;14.10;;;1.50;99.90;;;;;;5075234;28;20416;-70
2024/01/15 05:30:42;;;;;;;26.30;14.57;;;1.50;99.90;;;;;;5068565;28;20609;-68
2024/01/15 05:33:08;;;;;;;25.73;14.23;;;1.50;99.90;;;;;;5073480;28;20636;-68
2024/01/15 05:35:34;;;;;;;24.23;14.27;;;1.50;99.90;;;;;;5075797;28;20205;-70
2024/01/15 05:38:00;;;;;;;21.20;13.10;;;1.50;99.90;;;;;;5073747;28;20258;-70
2024/01/15 05:40:26;;;;;;;23.83;13.43;;;1.50;99.90;;;;;;5077751;28;20480;-71
2024/01/15 05:42:51;;;;;;;22.20;13.10;;;1.50;99.90;;;;;;5077362;28;20510;-67
2024/01/15 05:45:17;;;;;;;23.00;13.13;;;1.50;99.90;;;;;;5077725;28;20685;-72
2024/01/15 05:47:43;;;;;;;29.40;14.40;;;1.50;99.90;;;;;;5072924;28;20247;-69
2024/01/15 05:50:09;;;;;;;21.13;12.50;;;1.60;99.90;;;;;;5072294;28;20476;-74
2024/01/15 05:52:35;;;;;;;21.27;10.83;;;1.60;99.90;;;;;;5049370;28;20427;-69
2024/01/15 05:55:01;;;;;;;19.73;11.30;;;1.60;99.90;;;;;;5074517;28;20466;-71
2024/01/15 05:57:26;;;;;;;18.73;10.90;;;1.60;99.90;;;;;;5074879;28;20189;-71
2024/01/15 05:59:52;;;;;;;21.40;12.73;;;1.60;99.90;;;;;;5074585;28;20185;-69
2024/01/15 06:02:18;;;;;;;23.17;14.20;;;1.60;99.90;;;;;;5076685;28;20193;-70
2024/01/15 06:04:43;;;;;;;23.33;13.63;;;1.60;99.90;;;;;;5075186;28;20222;-67
2024/01/15 06:07:09;;;;;;;19.07;11.70;;;1.60;99.90;;;;;;5073879;28;20219;-70
2024/01/15 06:09:34;;;;;;;24.07;12.87;;;1.60;99.90;;;;;;5071432;28;20277;-68
2024/01/15 06:12:00;;;;;;;28.90;12.40;;;1.60;99.90;;;;;;5071672;28;20232;-69
2024/01/15 06:14:26;;;;;;;20.90;11.20;;;1.60;99.90;;;;;;5072995;28;20237;-71
2024/01/15 06:16:52;;;;;;;18.77;10.97;;;1.60;99.90;;;;;;5076442;28;20212;-71
2024/01/15 06:19:18;;;;;;;20.13;10.80;;;1.60;99.90;;;;;;5074307;28;20490;-69
2024/01/15 06:21:43;;;;;;;19.40;12.17;;;1.60;99.90;;;;;;5066849;28;20432;-71
2024/01/15 06:24:10;;;;;;;20.70;12.40;;;1.60;99.90;;;;;;5079106;28;20181;-71
2024/01/15 06:26:35;;;;;;;19.47;12.43;;;1.60;99.90;;;;;;5080262;28;20228;-70
2024/01/15 06:29:02;;;;;;;24.07;12.67;;;1.70;99.90;;;;;;5080068;28;20419;-70
2024/01/15 06:31:28;;;;;;;19.63;11.77;;;1.60;99.90;;;;;;5075509;28;20283;-69
2024/01/15 06:33:55;;;;;;;21.03;12.60;;;1.70;99.90;;;;;;5082410;28;20463;-70
2024/01/15 06:36:21;;;;;;;22.27;12.63;;;1.70;99.90;;;;;;5086148;28;20482;-70
2024/01/15 06:38:47;;;;;;;21.03;11.53;;;1.70;99.90;;;;;;5086422;28;20836;-70
2024/01/15 06:41:13;;;;;;;19.40;12.30;;;1.70;99.90;;;;;;5084340;28;20463;-71
2024/01/15 06:43:38;;;;;;;23.37;14.30;;;1.70;99.90;;;;;;5078682;28;20419;-71
2024/01/15 06:46:04;;;;;;;22.47;13.80;;;1.70;99.90;;;;;;5079888;28;20216;-69
2024/01/15 06:48:30;;;;;;;16.80;12.60;;;1.70;99.90;;;;;;5069806;28;20205;-71
2024/01/15 06:50:55;;;;;;;22.50;12.47;;;1.70;99.90;;;;;;5074861;28;20223;-70
2024/01/15 06:53:21;;;;;;;23.17;14.10;;;1.70;99.90;;;;;;5074154;28;20462;-70
2024/01/15 06:55:47;;;;;;;27.40;15.43;;;1.80;99.90;;;;;;5076654;28;20679;-71
2024/01/15 06:58:12;;;;;;;23.10;14.47;;;1.70;99.90;;;;;;5078024;28;20243;-70
2024/01/15 07:00:38;;;;;;;20.57;14.03;;;1.70;99.90;;;;;;5077725;28;20188;-72
2024/01/15 07:03:04;;;;;;;24.07;14.07;;;1.70;99.90;;;;;;5081815;28;20189;-71
2024/01/15 07:05:30;;;;;;;17.23;11.93;;;1.70;99.90;;;;;;5082863;28;20208;-69
2024/01/15 07:07:56;;;;;;;21.20;13.83;;;1.70;99.90;;;;;;5078976;28;20200;-70
2024/01/15 07:10:22;;;;;;;24.93;13.47;;;1.70;99.90;;;;;;5080834;28;20423;-70
2024/01/15 07:12:47;;;;;;;25.30;14.10;;;1.60;99.90;;;;;;5078118;28;20268;-72
2024/01/15 07:15:14;;;;;;;29.27;13.63;;;1.60;99.90;;;;;;5083505;28;20220;-71
2024/01/15 07:17:40;;;;;;;19.10;12.77;;;1.60;99.90;;;;;;5059526;28;20407;-70
2024/01/15 07:20:09;;;;;;;20.40;12.00;;;1.70;99.90;;;;;;5075370;28;20523;-69
2024/01/15 07:22:38;;;;;;;17.37;11.27;;;1.70;99.90;;;;;;5079172;28;20205;-70
2024/01/15 07:25:04;;;;;;;17.20;11.23;;;1.60;99.90;;;;;;5071728;28;20869;-71
2024/01/15 07:27:31;;;;;;;21.63;14.27;;;1.70;99.90;;;;;;5082080;28;20427;-70
2024/01/15 07:29:57;;;;;;;27.83;12.70;;;1.70;99.90;;;;;;5077662;28;20459;-71
2024/01/15 07:32:23;;;;;;;22.50;14.87;;;1.70;99.90;;;;;;5060319;28;20451;-73
2024/01/15 07:34:49;;;;;;;22.87;14.27;;;1.70;99.90;;;;;;5074357;28;20492;-71
2024/01/15 07:37:15;;;;;;;19.90;12.83;;;1.60;99.90;;;;;;5082844;28;20181;-70
2024/01/15 07:39:40;;;;;;;23.10;12.67;;;1.70;99.90;;;;;;5081664;28;20412;-70
2024/01/15 07:42:07;;;;;;;19.77;12.83;;;1.80;99.90;;;;;;5073745;28;20278;-72
2024/01/15 07:44:33;;;;;;;20.73;12.33;;;1.80;99.90;;;;;;5071451;28;20183;-70
2024/01/15 07:46:58;;;;;;;17.87;11.30;;;1.80;99.90;;;;;;5071688;28;20702;-71
2024/01/15 07:49:24;;;;;;;20.80;12.03;;;1.80;99.90;;;;;;5063698;28;20605;-69
2024/01/15 07:51:50;;;;;;;17.80;12.50;;;1.80;99.90;;;;;;5060970;28;20226;-70
2024/01/15 07:54:16;;;;;;;21.80;13.73;;;1.80;99.90;;;;;;5022309;28;20219;-72
2024/01/15 07:56:57;;;;;;;20.23;14.10;;;1.80;99.90;;;;;;5034221;28;20614;-70
2024/01/15 07:59:23;;;;;;;17.57;12.07;;;1.80;99.90;;;;;;5025818;28;20543;-70
2024/01/15 08:01:49;;;;;;;22.37;14.10;;;1.90;99.90;;;;;;5021358;28;20454;-72
2024/01/15 08:04:15;;;;;;;26.70;14.10;;;1.90;99.90;;;;;;5034605;28;20203;-70
2024/01/15 08:06:41;;;;;;;22.03;13.77;;;2.00;99.90;;;;;;5033756;28;20453;-70
2024/01/15 08:09:08;;;;;;;23.87;14.63;;;2.00;99.90;;;;;;5029242;28;20528;-70
2024/01/15 08:11:39;;;;;;;22.30;14.20;;;2.00;99.90;;;;;;5029609;28;20183;-71
2024/01/15 08:14:04;;;;;;;28.73;15.17;;;2.00;99.90;;;;;;5024072;28;20990;-71
2024/01/15 08:16:30;;;;;;;25.60;15.60;;;2.00;99.90;;;;;;5028771;28;20454;-72
2024/01/15 08:18:56;;;;;;;24.60;16.03;;;2.00;99.90;;;;;;5021342;28;20187;-73
2024/01/15 08:21:22;;;;;;;25.70;15.53;;;2.10;99.90;;;;;;5032699;28;20274;-71
2024/01/15 08:23:47;;;;;;;26.93;18.00;;;2.10;99.90;;;;;;5032377;28;20437;-71
2024/01/15 08:26:13;;;;;;;24.10;14.40;;;2.10;99.90;;;;;;5068443;28;20436;-72
2024/01/15 08:28:39;;;;;;;30.60;16.27;;;2.20;99.90;;;;;;5055933;28;20169;-70
2024/01/15 08:31:04;;;;;;;22.83;13.23;;;2.20;99.90;;;;;;5070099;28;20206;-71
2024/01/15 08:33:30;;;;;;;30.70;14.80;;;2.20;99.90;;;;;;5068616;28;20367;-70
2024/01/15 08:35:56;;;;;;;28.30;16.30;;;2.20;99.90;;;;;;5049522;28;20239;-72
2024/01/15 08:38:21;;;;;;;25.03;14.33;;;2.20;99.90;;;;;;5079065;28;20200;-72
2024/01/15 08:40:49;;;;;;;25.10;14.30;;;2.20;99.90;;;;;;5068854;28;20556;-70
2024/01/15 08:43:15;;;;;;;22.80;15.47;;;2.20;99.90;;;;;;5064024;28;20229;-69
2024/01/15 08:45:40;;;;;;;26.27;14.90;;;2.20;99.90;;;;;;5074987;28;20452;-70
2024/01/15 08:48:06;;;;;;;31.27;15.50;;;2.30;99.90;;;;;;5065387;28;20494;-71
2024/01/15 08:50:33;;;;;;;21.37;13.90;;;2.30;99.90;;;;;;5074857;28;20363;-69
2024/01/15 08:52:59;;;;;;;25.30;15.10;;;2.30;99.90;;;;;;5067316;28;20443;-71
2024/01/15 08:55:25;;;;;;;22.80;15.43;;;2.20;99.90;;;;;;5070550;28;20459;-70
2024/01/15 08:57:50;;;;;;;21.83;14.83;;;2.20;99.90;;;;;;5062538;28;20200;-72
2024/01/15 09:00:17;;;;;;;24.93;14.23;;;2.30;99.90;;;;;;5073418;28;20193;-72
2024/01/15 09:02:43;;;;;;;28.83;15.23;;;2.30;99.90;;;;;;5067593;28;20259;-71
2024/01/15 09:05:09;;;;;;;22.83;13.40;;;2.20;99.90;;;;;;5068121;28;20436;-71
2024/01/15 09:07:36;;;;;;;22.10;14.03;;;2.20;99.90;;;;;;5065652;28;20408;-73
2024/01/15 09:10:02;;;;;;;30.20;12.70;;;2.20;99.90;;;;;;5066379;28;20177;-70
2024/01/15 09:12:28;;;;;;;19.07;13.07;;;2.20;99.90;;;;;;5067009;28;20423;-70
2024/01/15 09:14:53;;;;;;;25.17;13.07;;;2.20;99.90;;;;;;5064550;28;20216;-70
2024/01/15 09:17:24;;;;;;;27.97;13.20;;;2.20;99.90;;;;;;5064047;28;20196;-71
2024/01/15 09:19:50;;;;;;;20.07;12.90;;;2.20;99.90;;;;;;5058774;28;20213;-70
2024/01/15 09:22:18;;;;;;;18.87;13.00;;;2.20;99.90;;;;;;5062016;28;20435;-71
2024/01/15 09:24:45;;;;;;;21.17;11.80;;;2.20;99.90;;;;;;5062841;28;20181;-72
2024/01/15 09:27:11;;;;;;;15.53;10.73;;;2.20;99.90;;;;;;5072927;28;20448;-71
2024/01/15 09:29:39;;;;;;;19.90;11.20;;;2.10;99.90;;;;;;5042480;28;20434;-70
2024/01/15 09:32:07;;;;;;;15.33;10.30;;;2.10;99.90;;;;;;5045104;28;20198;-70
2024/01/15 09:34:33;;;;;;;12.90;9.80;;;2.00;99.90;;;;;;5071794;28;20459;-71
2024/01/15 09:36:59;;;;;;;17.50;10.90;;;2.00;99.90;;;;;;5060800;28;20437;-69
2024/01/15 09:39:26;;;;;;;13.57;9.40;;;2.00;99.90;;;;;;5067502;28;20472;-72
2024/01/15 09:41:53;;;;;;;14.30;9.97;;;1.90;99.90;;;;;;5069678;28;20587;-68
2024/01/15 09:44:19;;;;;;;21.90;10.97;;;1.80;99.90;;;;;;5059072;28;20741;-69
2024/01/15 09:46:49;;;;;;;12.37;9.90;;;1.80;99.90;;;;;;5056098;28;20946;-71
2024/01/15 09:49:15;;;;;;;14.63;9.50;;;1.70;99.90;;;;;;5056333;28;20436;-70
2024/01/15 09:51:41;;;;;;;18.57;10.40;;;1.70;99.90;;;;;;5064172;28;20435;-71
2024/01/15 09:54:08;;;;;;;17.27;10.27;;;1.60;99.90;;;;;;5065276;28;20707;-70
2024/01/15 09:56:35;;;;;;;13.00;7.70;;;1.60;99.90;;;;;;5065879;28;20447;-70
2024/01/15 09:59:01;;;;;;;13.47;10.27;;;1.60;99.90;;;;;;5068178;28;20910;-72
2024/01/15 10:01:27;;;;;;;13.97;8.80;;;1.50;99.90;;;;;;5069130;28;20371;-70
2024/01/15 10:03:54;;;;;;;10.30;7.80;;;1.50;99.90;;;;;;5058375;28;20746;-71
2024/01/15 10:06:21;;;;;;;10.10;7.67;;;1.50;99.90;;;;;;5048493;28;20481;-71
2024/01/15 10:08:49;;;;;;;7.83;7.03;;;1.50;99.90;;;;;;5052580;28;20428;-72
2024/01/15 10:11:19;;;;;;;13.00;6.83;;;1.50;99.90;;;;;;5057654;28;20481;-70
2024/01/15 10:13:44;;;;;;;10.10;6.50;;;1.50;99.90;;;;;;5066166;28;20741;-70
2024/01/15 10:16:11;;;;;;;11.77;6.73;;;1.50;99.90;;;;;;5059196;28;20431;-71
2024/01/15 10:18:36;;;;;;;12.67;6.40;;;1.50;99.90;;;;;;5078826;28;20274;-72
2024/01/15 10:21:03;;;;;;;7.27;5.50;;;1.60;99.90;;;;;;5058962;28;20416;-73
2024/01/15 10:23:31;;;;;;;9.13;6.37;;;1.60;99.90;;;;;;5077602;28;20485;-72
2024/01/15 10:26:01;;;;;;;7.83;5.73;;;1.60;99.90;;;;;;5066031;28;20522;-72
2024/01/15 10:28:27;;;;;;;10.73;7.00;;;1.60;99.90;;;;;;5056755;28;20428;-71
2024/01/15 10:30:58;;;;;;;11.40;6.53;;;1.50;99.90;;;;;;5064840;28;20434;-71
2024/01/15 10:33:28;;;;;;;9.07;5.97;;;1.50;99.90;;;;;;5064325;28;20723;-74
2024/01/15 10:35:59;;;;;;;8.70;6.00;;;1.50;99.90;;;;;;5058442;28;20467;-74
2024/01/15 10:38:26;;;;;;;7.10;5.70;;;1.50;99.90;;;;;;5073794;28;20482;-72
2024/01/15 10:40:56;;;;;;;7.03;5.80;;;1.50;99.90;;;;;;5060418;28;20473;-72
2024/01/15 10:43:22;;;;;;;8.43;6.63;;;1.60;99.90;;;;;;5067483;28;20428;-71
2024/01/15 10:45:49;;;;;;;10.20;7.20;;;1.60;99.90;;;;;;5079397;28;20925;-72
2024/01/15 10:48:17;;;;;;;10.07;7.13;;;1.60;99.90;;;;;;5043980;28;20419;-71
2024/01/15 10:50:44;;;;;;;13.10;7.13;;;1.60;99.90;;;;;;5064919;28;20412;-71
2024/01/15 10:53:12;;;;;;;9.97;6.30;;;1.60;99.90;;;;;;5077735;28;20424;-73
2024/01/15 10:55:39;;;;;;;6.60;5.93;;;1.50;99.90;;;;;;5070524;28;20928;-72
2024/01/15 10:58:07;;;;;;;6.17;5.47;;;1.50;99.90;;;;;;5063603;28;20420;-72
2024/01/15 11:00:35;;;;;;;7.30;5.10;;;1.50;99.90;;;;;;5053512;28;20436;-71
2024/01/15 11:03:02;;;;;;;8.23;5.33;;;1.50;99.90;;;;;;5068291;28;20955;-70
2024/01/15 11:05:28;;;;;;;6.13;4.30;;;1.50;99.90;;;;;;5047025;28;20452;-72
2024/01/15 11:08:00;;;;;;;7.00;4.87;;;1.50;99.90;;;;;;5053664;28;20472;-73
2024/01/15 11:10:52;;;;;;;6.50;5.07;;;1.50;99.90;;;;;;5051947;28;20419;-69
2024/01/15 11:13:33;;;;;;;6.87;5.00;;;1.50;99.90;;;;;;5053119;28;20485;-72
2024/01/15 11:16:04;;;;;;;6.33;4.50;;;1.60;99.90;;;;;;5050757;28;20779;-71
2024/01/15 11:18:40;;;;;;;6.40;4.10;;;1.60;99.90;;;;;;5068812;28;20415;-72
2024/01/15 11:21:17;;;;;;;7.17;4.67;;;1.70;99.90;;;;;;5064271;28;20423;-72
2024/01/15 11:23:51;;;;;;;4.90;3.67;;;1.70;99.90;;;;;;5067918;28;20432;-73
2024/01/15 11:26:46;;;;;;;5.53;4.00;;;1.80;99.90;;;;;;5060609;28;20475;-73
2024/01/15 11:29:27;;;;;;;5.13;4.07;;;1.90;99.90;;;;;;5069180;28;20432;-73
2024/01/15 11:31:59;;;;;;;4.80;3.27;;;2.00;99.90;;;;;;5065903;28;20412;-73
2024/01/15 11:34:50;;;;;;;6.17;4.30;;;2.00;99.90;;;;;;5073603;28;20452;-71
2024/01/15 11:37:16;;;;;;;4.40;3.30;;;2.10;99.90;;;;;;5053753;28;20480;-74
2024/01/15 11:39:46;;;;;;;4.73;3.63;;;2.20;99.90;;;;;;5077797;28;20424;-74
2024/01/15 11:42:13;;;;;;;6.30;4.07;;;2.20;99.90;;;;;;5067796;28;20240;-73
2024/01/15 11:44:39;;;;;;;5.43;3.77;;;2.10;99.90;;;;;;5065019;28;20428;-74
2024/01/15 11:47:06;;;;;;;6.33;5.10;;;2.10;99.90;;;;;;5064119;28;20460;-74
2024/01/15 11:50:01;;;;;;;5.93;5.03;;;2.10;99.90;;;;;;5050548;28;20520;-72
2024/01/15 11:52:37;;;;;;;5.63;5.10;;;2.10;99.90;;;;;;5071886;28;20498;-74
2024/01/15 11:55:28;;;;;;;7.20;5.20;;;2.10;99.90;;;;;;5057605;28;20594;-72
2024/01/15 11:57:54;;;;;;;6.10;5.40;;;2.10;99.90;;;;;;5059304;28;20436;-74
2024/01/15 12:00:21;;;;;;;6.43;4.93;;;2.10;99.90;;;;;;5066734;28;20412;-72
2024/01/15 12:02:49;;;;;;;8.13;6.23;;;2.10;99.90;;;;;;5066263;28;20435;-72
2024/01/15 12:05:18;;;;;;;7.53;6.20;;;2.10;99.90;;;;;;5070266;28;20463;-71
2024/01/15 12:07:45;;;;;;;11.10;6.60;;;2.00;99.90;;;;;;5043862;28;20459;-73
2024/01/15 12:10:12;;;;;;;11.20;7.30;;;1.90;99.90;;;;;;5056316;28;20511;-73
2024/01/15 12:12:55;;;;;;;9.93;6.57;;;1.90;99.90;;;;;;5054177;28;20427;-72
2024/01/15 12:15:21;;;;;;;12.60;7.57;;;1.90;99.90;;;;;;5057029;28;20474;-74
2024/01/15 12:17:47;;;;;;;10.83;7.37;;;1.80;99.90;;;;;;5078888;28;20439;-74
2024/01/15 12:20:15;;;;;;;9.40;6.60;;;1.80;99.90;;;;;;5055561;28;20513;-71
2024/01/15 12:22:41;;;;;;;9.90;7.53;;;1.80;99.90;;;;;;5060342;28;20450;-75
2024/01/15 12:25:07;;;;;;;11.77;7.43;;;1.90;99.90;;;;;;5076293;28;20428;-72
2024/01/15 12:27:33;;;;;;;19.27;6.97;;;2.00;99.90;;;;;;5078659;28;20192;-74
2024/01/15 12:29:59;;;;;;;14.50;7.83;;;2.10;99.90;;;;;;5082597;28;20439;-72
2024/01/15 12:32:25;;;;;;;15.13;7.53;;;2.20;99.90;;;;;;5066605;28;20412;-75
2024/01/15 12:34:51;;;;;;;18.17;6.60;;;2.40;99.90;;;;;;5061237;28;20464;-74
2024/01/15 12:37:21;;;;;;;12.10;5.33;;;2.60;99.90;;;;;;5081606;28;20579;-74
2024/01/15 12:39:47;;;;;;;9.20;6.20;;;2.70;99.90;;;;;;5079125;28;20299;-75